Time;durP1;ratioP1;P1;durP2;ratioP2;P2;SDS_P1;SDS_P2;PMS_P1;PMS_P2;Temp;Humidity;BMP_temperature;BMP_pressure;BME280_temperature;BME280_humidity;BME280_pressure;Samples;Min_cycle;Max_cycle;Signal;HPM_P1;HPM_P2
2024/02/06 00:00:15;;;;;;;8.00;7.30;;;;;;;28.58;62.14;101375.66;5055151;28;71429;-40
2024/02/06 00:02:45;;;;;;;8.07;7.38;;;;;;;28.62;63.64;101376.97;5059221;28;65730;-40
2024/02/06 00:05:16;;;;;;;11.70;7.45;;;;;;;28.66;63.56;101380.94;5058854;28;70298;-41
2024/02/06 00:07:47;;;;;;;9.68;8.05;;;;;;;28.68;64.26;101389.69;5058776;28;66370;-41
2024/02/06 00:10:18;;;;;;;10.18;9.40;;;;;;;28.65;69.40;101368.47;5058347;28;70295;-41
2024/02/06 00:12:52;;;;;;;11.30;10.30;;;;;;;28.84;71.33;101388.59;5055892;28;66718;-41
2024/02/06 00:15:22;;;;;;;12.25;10.93;;;;;;;28.91;68.93;101384.88;5046161;28;70397;-39
2024/02/06 00:17:53;;;;;;;17.00;11.30;;;;;;;28.95;74.64;101386.19;5040676;28;66290;-40
2024/02/06 00:20:23;;;;;;;14.15;11.50;;;;;;;29.02;76.05;101390.81;5051516;28;69773;-39
2024/02/06 00:22:54;;;;;;;26.15;13.05;;;;;;;29.07;75.79;101393.78;5042155;28;66076;-42
2024/02/06 00:25:25;;;;;;;31.73;15.80;;;;;;;29.01;79.36;101389.16;5046915;28;70827;-42
2024/02/06 00:27:56;;;;;;;24.50;16.70;;;;;;;29.11;78.76;101400.44;5059490;28;66108;-43
2024/02/06 00:30:26;;;;;;;26.83;16.23;;;;;;;29.13;80.73;101403.81;5058976;28;70534;-45
2024/02/06 00:32:57;;;;;;;16.38;14.15;;;;;;;29.16;81.43;101411.50;5055220;28;66277;-42
2024/02/06 00:35:29;;;;;;;24.10;14.93;;;;;;;29.20;81.86;101415.50;5051820;28;69041;-43
2024/02/06 00:38:00;;;;;;;23.02;16.63;;;;;;;29.23;82.47;101423.22;5056657;28;66484;-42
2024/02/06 00:40:31;;;;;;;16.35;14.63;;;;;;;29.30;82.47;101426.78;5054785;28;70732;-41
2024/02/06 00:43:02;;;;;;;21.65;15.98;;;;;;;29.31;82.89;101423.06;5061696;28;66346;-41
2024/02/06 00:45:33;;;;;;;31.33;15.57;;;;;;;29.31;82.53;101425.78;5057824;28;69970;-42
2024/02/06 00:48:04;;;;;;;20.73;15.23;;;;;;;29.36;81.93;101426.03;5058521;28;66246;-42
2024/02/06 00:50:36;;;;;;;21.48;14.73;;;;;;;29.40;81.71;101454.31;5057955;28;69195;-41
2024/02/06 00:53:07;;;;;;;22.23;15.57;;;;;;;29.45;81.76;101444.75;5057307;28;66516;-42
2024/02/06 00:55:38;;;;;;;18.55;15.45;;;;;;;29.47;82.38;101448.13;5058885;28;70346;-41
2024/02/06 00:58:09;;;;;;;20.73;15.57;;;;;;;29.47;80.91;101445.41;5058440;28;66375;-43
2024/02/06 01:00:41;;;;;;;23.97;16.53;;;;;;;29.46;81.46;101451.84;5045550;28;70222;-42
2024/02/06 01:03:12;;;;;;;50.75;23.92;;;;;;;29.49;81.94;101459.56;5060638;28;66481;-42
2024/02/06 01:05:42;;;;;;;62.85;29.05;;;;;;;29.42;81.64;101445.16;5059760;28;70365;-41
2024/02/06 01:08:13;;;;;;;72.03;34.70;;;;;;;29.50;80.93;101464.75;5050161;28;66558;-42
2024/02/06 01:10:44;;;;;;;82.53;36.60;;;;;;;29.53;80.96;101474.34;5061218;28;71272;-42
2024/02/06 01:13:15;;;;;;;88.30;38.33;;;;;;;29.58;78.57;101472.72;5063257;28;66274;-41
2024/02/06 01:15:46;;;;;;;82.28;36.45;;;;;;;29.49;79.06;101462.28;5059310;28;70039;-41
2024/02/06 01:18:17;;;;;;;74.00;35.65;;;;;;;29.59;81.18;101470.88;5062264;28;65733;-42
2024/02/06 01:20:48;;;;;;;69.55;33.95;;;;;;;29.55;80.99;101472.28;5048764;28;70376;-41
2024/02/06 01:23:18;;;;;;;68.50;33.53;;;;;;;29.64;81.36;101492.75;5049168;28;66750;-41
2024/02/06 01:25:49;;;;;;;58.60;30.75;;;;;;;29.65;81.53;101489.03;5060237;28;70177;-42
2024/02/06 01:28:20;;;;;;;61.40;30.33;;;;;;;29.64;80.43;101486.53;5056550;28;66572;-43
2024/02/06 01:30:50;;;;;;;51.88;27.02;;;;;;;29.64;80.02;101486.53;5054543;28;70037;-43
2024/02/06 01:33:21;;;;;;;49.38;27.67;;;;;;;29.71;81.05;101499.06;5052681;28;66249;-41
2024/02/06 01:35:52;;;;;;;47.03;27.08;;;;;;;29.73;78.37;101497.00;5057975;28;70288;-42
2024/02/06 01:38:23;;;;;;;40.05;24.73;;;;;;;29.72;80.84;101500.72;5060618;28;66690;-42
2024/02/06 01:40:54;;;;;;;42.45;24.85;;;;;;;29.78;81.04;101505.38;5060525;28;70244;-42
2024/02/06 01:43:25;;;;;;;43.25;23.30;;;;;;;29.79;81.00;101504.31;5061651;28;65358;-43
2024/02/06 01:45:56;;;;;;;44.08;23.27;;;;;;;29.80;80.30;101508.69;5060804;28;69930;-43
2024/02/06 01:48:27;;;;;;;34.20;21.23;;;;;;;29.76;80.91;101504.72;5059512;28;66291;-42
2024/02/06 01:50:58;;;;;;;30.38;21.02;;;;;;;29.70;81.89;101500.09;5059258;28;68786;-42
2024/02/06 01:53:31;;;;;;;25.63;19.25;;;;;;;29.77;78.83;101508.25;5061226;28;66983;-44
2024/02/06 01:56:02;;;;;;;24.23;19.30;;;;;;;29.68;79.45;101499.47;5061947;28;70680;-42
2024/02/06 01:58:34;;;;;;;29.02;18.60;;;;;;;29.78;81.23;101510.78;5059156;28;66546;-42
2024/02/06 02:01:07;;;;;;;26.02;18.27;;;;;;;29.82;81.11;101517.44;5059766;28;69738;-43
2024/02/06 02:03:38;;;;;;;24.65;18.45;;;;;;;29.89;81.80;101527.47;5060668;28;65947;-41
2024/02/06 02:06:08;;;;;;;20.90;18.67;;;;;;;29.99;78.90;101525.25;5059965;28;69799;-41
2024/02/06 02:08:40;;;;;;;22.70;17.23;;;;;;;29.97;77.68;101514.59;5060129;28;66081;-42
2024/02/06 02:11:11;;;;;;;20.93;17.63;;;;;;;30.02;81.13;101522.13;5061398;28;69731;-43
2024/02/06 02:13:42;;;;;;;21.75;16.63;;;;;;;30.01;80.55;101515.06;5046512;28;66042;-42
2024/02/06 02:16:15;;;;;;;18.10;16.10;;;;;;;29.99;79.12;101509.00;5059620;28;69483;-41
2024/02/06 02:18:46;;;;;;;17.63;15.90;;;;;;;29.86;80.71;101490.00;5059470;28;65485;-42
2024/02/06 02:21:17;;;;;;;18.65;15.80;;;;;;;30.07;80.46;101511.56;5059778;28;70170;-42
2024/02/06 02:23:47;;;;;;;20.05;15.52;;;;;;;30.09;78.59;101506.78;5061288;28;65592;-42
2024/02/06 02:26:21;;;;;;;16.48;14.85;;;;;;;30.13;80.22;101507.22;5059083;28;70021;-42
2024/02/06 02:28:53;;;;;;;15.57;14.18;;;;;;;30.15;79.44;101505.97;5061488;28;67600;-42
2024/02/06 02:31:25;;;;;;;16.20;14.80;;;;;;;30.14;80.90;101507.00;5046976;28;70530;-43
2024/02/06 02:33:56;;;;;;;15.38;13.80;;;;;;;30.20;79.43;101518.88;5058563;28;66512;-42
2024/02/06 02:36:26;;;;;;;15.70;14.10;;;;;;;30.14;79.91;101515.13;5060786;28;69947;-42
2024/02/06 02:38:57;;;;;;;15.13;13.80;;;;;;;30.18;78.89;101519.09;5059194;28;67691;-42
2024/02/06 02:41:28;;;;;;;16.05;14.00;;;;;;;30.16;79.54;101510.34;5061842;28;70476;-42
2024/02/06 02:43:59;;;;;;;15.88;14.38;;;;;;;30.09;79.41;101493.25;5061510;28;65749;-42
2024/02/06 02:46:30;;;;;;;15.45;14.05;;;;;;;30.24;79.80;101518.34;5061243;28;69411;-41
2024/02/06 02:49:00;;;;;;;15.65;14.45;;;;;;;30.22;79.15;101506.88;5052983;28;65902;-41
2024/02/06 02:51:32;;;;;;;15.82;14.15;;;;;;;30.26;79.57;101513.56;5035640;28;70916;-42
2024/02/06 02:54:03;;;;;;;14.85;13.52;;;;;;;30.27;78.69;101498.16;5060706;28;66839;-43
2024/02/06 02:56:33;;;;;;;13.55;12.65;;;;;;;30.30;79.48;101502.34;5060461;28;70425;-42
2024/02/06 02:59:05;;;;;;;14.27;13.13;;;;;;;30.31;79.80;101509.41;5061197;28;66579;-42
2024/02/06 03:01:36;;;;;;;15.18;13.77;;;;;;;30.17;79.64;101484.13;5058511;28;69988;-44
2024/02/06 03:04:07;;;;;;;15.73;14.20;;;;;;;30.28;78.82;101489.00;5052378;28;67083;-42
2024/02/06 03:06:38;;;;;;;17.15;14.10;;;;;;;30.35;79.75;101486.31;5044541;28;70616;-43
2024/02/06 03:09:08;;;;;;;20.17;15.75;;;;;;;30.37;79.71;101487.78;5050075;28;65805;-42
2024/02/06 03:11:39;;;;;;;18.75;15.23;;;;;;;30.42;78.82;101484.47;5052698;28;69346;-42
2024/02/06 03:14:11;;;;;;;25.45;15.35;;;;;;;30.43;81.37;101478.03;5043679;28;66412;-43
2024/02/06 03:16:41;;;;;;;19.15;16.33;;;;;;;30.49;81.74;101479.91;5056814;28;70159;-41
2024/02/06 03:19:12;;;;;;;23.60;16.90;;;;;;;30.53;81.88;101480.34;5060146;28;66174;-42
2024/02/06 03:21:43;;;;;;;23.98;16.88;;;;;;;30.56;81.78;101469.09;5059675;28;69952;-42
2024/02/06 03:24:14;;;;;;;23.75;16.30;;;;;;;30.54;82.32;101461.19;5059208;28;66694;-42
2024/02/06 03:26:45;;;;;;;16.85;15.13;;;;;;;30.60;81.91;101470.38;5060810;28;70346;-42
2024/02/06 03:29:16;;;;;;;18.38;16.25;;;;;;;30.59;82.26;101466.84;5048013;28;64845;-41
2024/02/06 03:31:48;;;;;;;18.17;15.02;;;;;;;30.63;81.83;101464.53;5051574;28;69881;-43
2024/02/06 03:34:20;;;;;;;16.00;14.50;;;;;;;30.60;81.62;101454.13;5043158;28;65619;-43
2024/02/06 03:36:53;;;;;;;21.30;14.82;;;;;;;30.61;82.64;101455.78;5051119;28;70102;-43
2024/02/06 03:39:24;;;;;;;16.35;14.05;;;;;;;30.64;81.66;101450.78;5026426;28;66350;-41
2024/02/06 03:41:55;;;;;;;15.30;13.88;;;;;;;30.69;81.47;101447.47;5060925;28;70796;-42
2024/02/06 03:44:27;;;;;;;15.53;13.97;;;;;;;30.72;81.64;101441.63;5058835;28;66172;-46
2024/02/06 03:46:57;;;;;;;15.68;14.05;;;;;;;30.74;81.51;101447.69;5054104;28;71363;-41
2024/02/06 03:49:28;;;;;;;19.25;14.50;;;;;;;30.76;81.65;101440.19;5057751;28;66443;-41
2024/02/06 03:51:59;;;;;;;30.35;16.23;;;;;;;30.81;81.46;101435.00;5048652;28;69668;-41
2024/02/06 03:54:30;;;;;;;39.30;18.58;;;;;;;30.88;81.67;101427.72;5046354;28;66008;-42
2024/02/06 03:57:01;;;;;;;42.28;19.20;;;;;;;30.84;81.76;101428.34;5044069;28;69584;-42
2024/02/06 03:59:31;;;;;;;40.92;21.30;;;;;;;30.86;81.21;101421.69;5044693;28;65471;-42
2024/02/06 04:02:03;;;;;;;54.72;24.33;;;;;;;30.86;82.32;101420.84;5048548;28;70086;-42
2024/02/06 04:04:34;;;;;;;50.93;24.20;;;;;;;30.98;80.72;101419.22;5040064;28;65915;-43
2024/02/06 04:07:06;;;;;;;57.50;23.48;;;;;;;31.02;82.75;101414.19;5047041;28;69451;-42
2024/02/06 04:09:36;;;;;;;55.00;23.10;;;;;;;31.06;82.40;101407.31;5046084;28;65363;-43
2024/02/06 04:12:07;;;;;;;45.10;20.63;;;;;;;31.11;80.15;101397.50;5042355;28;70947;-44
2024/02/06 04:14:40;;;;;;;46.25;19.55;;;;;;;31.15;80.06;101395.22;5049706;28;65952;-45
2024/02/06 04:17:11;;;;;;;37.75;17.73;;;;;;;31.16;79.96;101383.34;5049936;28;69487;-44
2024/02/06 04:19:42;;;;;;;33.13;16.27;;;;;;;31.01;80.40;101359.19;5045238;28;66182;-44
2024/02/06 04:22:12;;;;;;;30.13;14.88;;;;;;;31.19;80.13;101373.94;5050851;28;69835;-43
2024/02/06 04:24:43;;;;;;;22.73;14.30;;;;;;;31.02;77.67;101333.75;5060037;28;65173;-43
2024/02/06 04:27:14;;;;;;;18.35;12.63;;;;;;;31.24;77.45;101349.78;5042511;28;70585;-43
2024/02/06 04:29:45;;;;;;;19.38;12.77;;;;;;;31.33;76.93;101362.03;5048543;28;66146;-43
2024/02/06 04:32:15;;;;;;;18.40;12.88;;;;;;;31.37;76.61;101358.72;5060632;28;69803;-43
2024/02/06 04:34:47;;;;;;;19.55;12.65;;;;;;;31.39;76.76;101345.78;5059721;28;65846;-42
2024/02/06 04:37:19;;;;;;;16.27;12.83;;;;;;;31.37;76.74;101328.91;5064069;28;70449;-42
2024/02/06 04:39:50;;;;;;;18.65;12.95;;;;;;;31.47;76.53;101331.16;5064471;28;66256;-42
2024/02/06 04:42:20;;;;;;;21.48;14.02;;;;;;;31.51;76.32;101329.72;5067742;28;70604;-42
2024/02/06 04:44:51;;;;;;;18.10;13.35;;;;;;;31.47;76.19;101314.91;5077180;28;66547;-43
2024/02/06 04:47:22;;;;;;;21.40;13.95;;;;;;;31.56;76.09;101319.03;5063291;28;70187;-43
2024/02/06 04:49:52;;;;;;;14.68;13.10;;;;;;;31.55;76.36;101301.09;5063292;28;66001;-42
2024/02/06 04:52:23;;;;;;;22.55;13.13;;;;;;;31.58;76.26;101303.38;5062862;28;69523;-47
2024/02/06 04:54:54;;;;;;;19.35;12.75;;;;;;;31.59;76.11;101291.50;5062243;28;66148;-42
2024/02/06 04:57:25;;;;;;;17.90;12.95;;;;;;;31.65;76.08;101294.38;5062885;28;69308;-42
2024/02/06 04:59:57;;;;;;;17.05;13.32;;;;;;;31.61;75.83;101286.69;5062848;28;67336;-42
2024/02/06 05:02:30;;;;;;;14.70;12.90;;;;;;;31.69;75.69;101279.34;5063141;28;70248;-43
2024/02/06 05:05:00;;;;;;;15.20;12.75;;;;;;;31.68;75.98;101283.09;5064231;28;66527;-44
2024/02/06 05:07:32;;;;;;;13.43;12.05;;;;;;;31.74;75.38;101271.41;5064704;28;70221;-43
2024/02/06 05:10:03;;;;;;;31.27;16.27;;;;;;;31.72;76.07;101263.47;5061932;28;65797;-44
2024/02/06 05:12:34;;;;;;;31.10;16.60;;;;;;;31.55;75.49;101257.72;5050195;28;70224;-43
2024/02/06 05:15:05;;;;;;;16.60;14.15;;;;;;;31.32;72.84;101241.13;5064545;28;66565;-42
2024/02/06 05:17:36;;;;;;;17.97;14.60;;;;;;;31.16;70.87;101248.66;5062942;28;70231;-41
2024/02/06 05:20:09;;;;;;;18.67;13.90;;;;;;;31.00;69.34;101246.41;5063705;28;65339;-43
2024/02/06 05:22:40;;;;;;;16.33;13.85;;;;;;;30.88;68.00;101245.41;5062845;28;69885;-43
2024/02/06 05:25:12;;;;;;;14.65;13.15;;;;;;;30.65;66.89;101229.59;5062364;28;66029;-43
2024/02/06 05:27:42;;;;;;;15.60;13.07;;;;;;;30.53;65.80;101229.38;5062116;28;69113;-43
2024/02/06 05:30:14;;;;;;;15.20;13.23;;;;;;;30.48;65.73;101223.78;5063003;28;65183;-41
2024/02/06 05:32:44;;;;;;;15.17;11.87;;;;;;;30.44;66.61;101217.13;5061606;28;69131;-41
2024/02/06 05:35:15;;;;;;;20.02;12.15;;;;;;;30.36;65.43;101217.31;5061593;28;66199;-41
2024/02/06 05:37:46;;;;;;;15.88;11.32;;;;;;;30.32;64.21;101213.38;5063804;28;70420;-42
2024/02/06 05:40:17;;;;;;;13.05;11.27;;;;;;;30.25;64.55;101206.06;5029204;28;66389;-43
2024/02/06 05:42:48;;;;;;;11.77;10.70;;;;;;;30.19;62.31;101198.78;5067853;28;70186;-41
2024/02/06 05:45:19;;;;;;;12.10;10.88;;;;;;;30.16;61.53;101192.94;5054183;28;66336;-42
2024/02/06 05:47:50;;;;;;;11.68;10.48;;;;;;;29.99;60.63;101171.72;5062644;28;70472;-41
2024/02/06 05:50:22;;;;;;;11.63;10.43;;;;;;;29.97;60.25;101172.97;5063656;28;66049;-41
2024/02/06 05:52:54;;;;;;;12.85;10.63;;;;;;;29.84;60.08;101147.59;5048461;28;70085;-43
2024/02/06 05:55:28;;;;;;;11.57;10.23;;;;;;;29.98;60.35;101169.22;5061922;28;66283;-42
2024/02/06 05:57:59;;;;;;;11.40;10.32;;;;;;;29.94;59.75;101163.38;5063100;28;70540;-41
2024/02/06 06:00:31;;;;;;;23.70;10.48;;;;;;;29.89;59.28;101144.22;5062239;28;66560;-41
2024/02/06 06:03:02;;;;;;;12.90;10.90;;;;;;;29.57;58.76;101097.19;5057781;28;70238;-42
2024/02/06 06:05:33;;;;;;;11.40;10.50;;;;;;;29.88;59.96;101145.28;5054903;28;66138;-42
2024/02/06 06:08:04;;;;;;;11.88;10.75;;;;;;;29.79;57.49;101133.84;5061997;28;71489;-40
2024/02/06 06:10:36;;;;;;;11.23;10.23;;;;;;;29.80;57.93;101132.78;5063587;28;66260;-42
2024/02/06 06:13:06;;;;;;;10.50;9.80;;;;;;;29.79;59.40;101117.63;5050010;28;70467;-42
2024/02/06 06:15:39;;;;;;;17.27;11.43;;;;;;;29.75;56.91;101115.53;5062119;28;67775;-40
2024/02/06 06:18:10;;;;;;;11.05;10.07;;;;;;;29.68;56.72;101098.47;5062479;28;69412;-40
2024/02/06 06:20:42;;;;;;;13.60;10.38;;;;;;;29.71;57.00;101108.88;5063037;28;66702;-40
2024/02/06 06:23:13;;;;;;;13.80;10.60;;;;;;;29.70;56.36;101099.09;5062727;28;69425;-41
2024/02/06 06:25:44;;;;;;;11.77;10.10;;;;;;;29.67;56.36;101088.69;5062685;28;66565;-41
2024/02/06 06:28:15;;;;;;;12.00;10.95;;;;;;;29.70;56.18;101091.84;5047740;28;70586;-40
2024/02/06 06:30:46;;;;;;;15.13;10.23;;;;;;;29.67;55.64;101073.31;5058254;28;65855;-40
2024/02/06 06:33:18;;;;;;;11.68;10.13;;;;;;;29.68;55.43;101072.28;5061747;28;69180;-40
2024/02/06 06:35:49;;;;;;;10.05;9.30;;;;;;;29.70;55.98;101061.25;5058621;28;66348;-40
2024/02/06 06:38:20;;;;;;;10.95;9.95;;;;;;;29.61;55.16;101049.78;5063129;28;69489;-41
2024/02/06 06:40:50;;;;;;;11.30;10.30;;;;;;;29.65;54.71;101053.78;5063040;28;66365;-41
2024/02/06 06:43:21;;;;;;;10.27;9.45;;;;;;;29.66;55.19;101051.88;5064431;28;69950;-40
2024/02/06 06:45:54;;;;;;;10.70;9.68;;;;;;;29.63;55.05;101042.31;5061558;28;65211;-40
2024/02/06 06:48:24;;;;;;;11.32;10.23;;;;;;;29.69;55.21;101032.53;5063009;28;70545;-41
2024/02/06 06:50:55;;;;;;;12.43;9.90;;;;;;;29.71;55.50;101033.19;5060374;28;66538;-41
2024/02/06 06:53:26;;;;;;;10.68;9.63;;;;;;;29.68;54.08;101031.72;5062458;28;70447;-42
2024/02/06 06:55:57;;;;;;;10.00;9.32;;;;;;;29.70;54.84;101026.09;5043084;28;66468;-41
2024/02/06 06:58:28;;;;;;;11.02;10.02;;;;;;;29.58;53.83;101009.63;5042207;28;69199;-42
2024/02/06 07:01:00;;;;;;;9.57;8.98;;;;;;;29.65;54.08;101007.81;5049799;28;66377;-41
2024/02/06 07:03:32;;;;;;;10.68;9.98;;;;;;;29.67;54.05;101002.19;5058764;28;69600;-41
2024/02/06 07:06:04;;;;;;;10.00;9.23;;;;;;;29.78;54.87;100997.00;5061646;28;66322;-43
2024/02/06 07:08:35;;;;;;;10.77;9.95;;;;;;;29.84;55.99;100990.75;5062210;28;70184;-42
2024/02/06 07:11:06;;;;;;;10.40;9.70;;;;;;;29.91;54.76;100992.59;5052670;28;67217;-41
2024/02/06 07:13:39;;;;;;;10.65;9.85;;;;;;;29.92;54.70;100984.28;5053713;28;70172;-41
2024/02/06 07:16:10;;;;;;;10.65;9.95;;;;;;;29.96;53.86;100981.97;5062173;28;66640;-43
2024/02/06 07:18:41;;;;;;;11.00;10.10;;;;;;;29.97;53.87;100983.63;5060331;28;70326;-40
2024/02/06 07:21:11;;;;;;;12.27;11.25;;;;;;;29.92;53.09;100961.78;5061378;28;66504;-40
2024/02/06 07:23:42;;;;;;;13.60;11.15;;;;;;;29.53;52.49;100893.22;5059415;28;70491;-41
2024/02/06 07:26:13;;;;;;;10.60;9.63;;;;;;;29.89;52.74;100948.69;5060268;28;66660;-41
2024/02/06 07:28:43;;;;;;;12.98;10.35;;;;;;;30.01;53.46;100955.94;5061632;28;70503;-42
2024/02/06 07:31:14;;;;;;;11.82;10.82;;;;;;;29.98;54.10;100936.63;5059347;28;65406;-41
2024/02/06 07:33:45;;;;;;;11.75;10.82;;;;;;;30.04;53.31;100938.47;5059201;28;71086;-41
2024/02/06 07:36:16;;;;;;;11.40;10.48;;;;;;;30.01;53.40;100919.97;5061813;28;66644;-42
2024/02/06 07:38:47;;;;;;;12.60;11.63;;;;;;;29.96;53.09;100911.66;5060240;28;69626;-41
2024/02/06 07:41:17;;;;;;;11.27;10.43;;;;;;;30.10;53.16;100925.97;5060489;28;66959;-41
2024/02/06 07:43:48;;;;;;;11.15;10.40;;;;;;;30.08;52.67;100923.47;5076130;27;69509;-41
2024/02/06 07:46:19;;;;;;;18.40;11.80;;;;;;;30.14;52.62;100924.47;5041887;28;65300;-41
2024/02/06 07:48:54;;;;;;;11.27;10.27;;;;;;;30.08;53.83;100920.75;5059939;28;70622;-40
2024/02/06 07:51:25;;;;;;;12.82;11.57;;;;;;;30.09;52.49;100917.03;5060374;28;66431;-40
2024/02/06 07:53:59;;;;;;;16.33;11.10;;;;;;;30.12;52.54;100930.13;5059818;28;69375;-40
2024/02/06 07:56:31;;;;;;;11.38;10.55;;;;;;;30.16;52.81;100928.63;5042571;28;66065;-40
2024/02/06 07:59:02;;;;;;;12.38;11.13;;;;;;;30.21;51.98;100928.81;5059786;28;70500;-40
2024/02/06 08:01:33;;;;;;;11.95;11.00;;;;;;;30.14;51.88;100922.59;5058041;28;66357;-39
2024/02/06 08:04:05;;;;;;;;;;;;;;;30.18;52.10;100931.97;5060882;28;70843;-41
2024/02/06 08:06:37;;;;;;;12.38;11.30;;;;;;;30.15;51.77;100904.50;5059086;28;66191;-40
2024/02/06 08:09:08;;;;;;;12.82;11.50;;;;;;;30.30;52.16;100926.72;5059157;28;70602;-41
2024/02/06 08:11:39;;;;;;;11.57;10.57;;;;;;;30.28;52.10;100926.97;5062827;28;65308;-41
2024/02/06 08:14:14;;;;;;;19.45;11.13;;;;;;;30.33;52.08;100922.75;5064467;28;70377;-41
2024/02/06 08:16:46;;;;;;;15.30;10.57;;;;;;;30.27;52.44;100914.47;5062660;28;65828;-41
2024/02/06 08:19:18;;;;;;;10.65;9.93;;;;;;;30.38;52.09;100925.66;5063872;28;70380;-41
2024/02/06 08:21:49;;;;;;;11.77;10.77;;;;;;;30.42;51.92;100921.47;5060637;28;67016;-41
2024/02/06 08:24:20;;;;;;;11.85;10.95;;;;;;;30.44;52.17;100908.53;5063515;28;70721;-40
2024/02/06 08:26:50;;;;;;;11.95;10.90;;;;;;;30.49;51.84;100912.25;5044782;28;66405;-39
2024/02/06 08:29:21;;;;;;;11.90;11.00;;;;;;;30.56;51.58;100908.69;5062003;28;70282;-39
2024/02/06 08:31:51;;;;;;;12.40;11.10;;;;;;;30.55;52.01;100918.69;5063786;28;66863;-40
2024/02/06 08:34:22;;;;;;;11.15;10.15;;;;;;;30.58;52.39;100928.25;5063321;28;69738;-42
2024/02/06 08:36:53;;;;;;;15.05;9.93;;;;;;;30.63;52.44;100918.44;5062139;28;66598;-41
2024/02/06 08:39:26;;;;;;;10.55;9.65;;;;;;;30.66;52.02;100917.16;5063299;28;70273;-42
2024/02/06 08:41:57;;;;;;;10.55;9.52;;;;;;;30.66;52.06;100923.41;5067513;28;66525;-42
2024/02/06 08:44:30;;;;;;;9.55;8.82;;;;;;;30.70;52.53;100930.06;5062138;28;70748;-40
2024/02/06 08:47:01;;;;;;;8.85;8.35;;;;;;;30.64;52.43;100909.25;5063658;28;66154;-41
2024/02/06 08:49:33;;;;;;;9.20;8.57;;;;;;;30.88;55.09;100926.63;5062787;28;69755;-44
2024/02/06 08:52:04;;;;;;;18.38;8.88;;;;;;;31.09;63.06;100927.28;5063383;28;65713;-42
2024/02/06 08:54:34;;;;;;;9.18;8.48;;;;;;;31.32;66.92;100922.09;5062780;28;70159;-41
2024/02/06 08:57:05;;;;;;;9.18;8.48;;;;;;;31.49;67.11;100925.09;5040476;28;65078;-41
2024/02/06 08:59:36;;;;;;;8.93;8.32;;;;;;;31.71;69.15;100919.25;5043368;28;69811;-41
2024/02/06 09:02:08;;;;;;;8.45;7.70;;;;;;;31.86;68.36;100925.13;5042576;28;67164;-42
2024/02/06 09:04:39;;;;;;;15.88;8.93;;;;;;;32.00;68.20;100923.94;5041427;28;70336;-42
2024/02/06 09:07:10;;;;;;;14.68;7.63;;;;;;;32.14;68.28;100929.22;5040860;28;67010;-41
2024/02/06 09:09:41;;;;;;;10.93;7.50;;;;;;;32.21;67.45;100929.97;5042712;28;71212;-41
2024/02/06 09:12:12;;;;;;;9.82;8.18;;;;;;;32.27;67.83;100929.06;5041760;28;65932;-40
2024/02/06 09:14:43;;;;;;;10.50;7.70;;;;;;;32.38;67.48;100941.84;5043332;28;69247;-42
2024/02/06 09:17:14;;;;;;;7.63;6.90;;;;;;;32.40;67.52;100939.75;5043000;28;66548;-41
2024/02/06 09:19:45;;;;;;;11.50;7.80;;;;;;;32.47;67.27;100945.94;5041418;28;69815;-41
2024/02/06 09:22:16;;;;;;;12.90;7.50;;;;;;;32.52;67.37;100941.72;5042786;28;66402;-41
2024/02/06 09:24:46;;;;;;;7.35;6.80;;;;;;;32.29;67.83;100894.38;5042251;28;70985;-41
2024/02/06 09:27:20;;;;;;;8.82;6.10;;;;;;;32.64;66.00;100945.28;5042925;28;66078;-42
2024/02/06 09:29:51;;;;;;;9.20;6.67;;;;;;;32.70;67.84;100944.38;5041609;28;70844;-41
2024/02/06 09:32:22;;;;;;;6.60;5.70;;;;;;;32.74;66.95;100942.84;5040248;28;65426;-40
2024/02/06 09:34:52;;;;;;;14.90;6.07;;;;;;;32.84;66.53;100951.25;5043086;28;69984;-44
2024/02/06 09:37:30;;;;;;;8.00;5.32;;;;;;;32.92;68.13;100947.38;5042630;28;66429;-42
2024/02/06 09:40:00;;;;;;;;;;;;;;;32.84;68.58;100962.13;5044994;28;69994;-41
2024/02/06 09:42:31;;;;;;;5.40;4.90;;;;;;;32.97;66.16;100958.38;5062160;28;65965;-42
2024/02/06 09:45:02;;;;;;;5.40;5.00;;;;;;;33.04;65.97;100967.31;5061644;28;69910;-42
2024/02/06 09:47:33;;;;;;;9.25;4.43;;;;;;;33.13;65.48;100971.34;5060987;28;66921;-42
2024/02/06 09:50:04;;;;;;;5.53;5.00;;;;;;;33.12;67.24;100974.28;5062747;28;70222;-42
2024/02/06 09:52:36;;;;;;;8.77;4.75;;;;;;;33.15;66.42;100981.94;5061089;28;65866;-42
2024/02/06 09:55:14;;;;;;;8.10;5.43;;;;;;;33.15;66.12;100990.97;5060874;28;71091;-40
2024/02/06 09:57:45;;;;;;;31.05;6.50;;;;;;;33.18;65.27;100992.34;5062437;28;66002;-41
2024/02/06 10:00:22;;;;;;;40.22;7.47;;;;;;;33.13;64.96;100992.25;5061578;28;69880;-41
2024/02/06 10:02:59;;;;;;;15.10;7.88;;;;;;;33.22;64.83;101001.72;5061849;28;65515;-43
2024/02/06 10:05:34;;;;;;;17.17;7.43;;;;;;;32.89;64.15;100940.53;5061070;28;69357;-42
2024/02/06 10:08:05;;;;;;;7.72;7.03;;;;;;;33.20;63.77;100992.97;5044951;28;65350;-42
2024/02/06 10:10:36;;;;;;;8.88;6.63;;;;;;;33.26;63.84;101013.75;5057256;28;70015;-42
2024/02/06 10:13:07;;;;;;;9.00;6.95;;;;;;;33.27;63.21;101015.44;5062300;28;65646;-42
2024/02/06 10:15:38;;;;;;;7.57;6.87;;;;;;;33.19;63.06;101013.06;5062807;28;70493;-43
2024/02/06 10:18:09;;;;;;;7.07;6.40;;;;;;;33.24;62.95;101010.47;5049882;28;66650;-43
2024/02/06 10:20:47;;;;;;;6.60;6.00;;;;;;;32.83;63.17;100948.78;5061645;28;69192;-43
2024/02/06 10:23:19;;;;;;;7.22;6.47;;;;;;;33.16;62.79;101010.81;5050909;28;65825;-42
2024/02/06 10:25:50;;;;;;;11.50;6.30;;;;;;;33.26;63.11;101013.75;5060836;28;70434;-41
2024/02/06 10:28:24;;;;;;;6.63;5.27;;;;;;;33.31;63.17;101016.63;5027055;28;66459;-41
2024/02/06 10:30:56;;;;;;;13.20;6.20;;;;;;;33.34;63.24;101021.59;5061277;28;70879;-41
2024/02/06 10:33:27;;;;;;;9.75;5.35;;;;;;;33.34;63.55;101010.72;5059993;28;66724;-40
2024/02/06 10:36:03;;;;;;;6.03;5.40;;;;;;;33.40;63.42;101013.56;5044913;28;70188;-42
2024/02/06 10:38:34;;;;;;;5.72;5.32;;;;;;;33.46;63.24;101023.50;5061656;28;66170;-41
2024/02/06 10:41:08;;;;;;;6.57;6.07;;;;;;;33.47;63.15;101022.44;5054425;28;69753;-40
2024/02/06 10:43:53;;;;;;;6.85;6.20;;;;;;;33.48;63.40;101024.09;5060015;28;65905;-42
2024/02/06 10:46:24;;;;;;;7.63;5.30;;;;;;;33.49;63.35;101032.03;5059921;28;69449;-41
2024/02/06 10:49:04;;;;;;;5.50;5.10;;;;;;;33.48;63.96;101037.69;5060799;28;66682;-41
2024/02/06 10:51:35;;;;;;;6.05;5.55;;;;;;;33.51;63.78;101037.22;5049227;28;70579;-42
2024/02/06 10:54:06;;;;;;;5.57;5.17;;;;;;;33.50;63.88;101041.00;5061635;28;65794;-41
2024/02/06 10:56:39;;;;;;;5.57;5.18;;;;;;;32.99;64.00;100958.13;5043813;28;69365;-43
2024/02/06 10:59:16;;;;;;;4.97;4.53;;;;;;;33.51;64.32;101048.09;5059742;28;65794;-42
2024/02/06 11:01:47;;;;;;;10.13;5.00;;;;;;;33.51;64.17;101051.63;5060820;28;68862;-43
2024/02/06 11:04:23;;;;;;;;;;;;;;;33.31;65.23;101043.81;5060285;28;66376;-42
2024/02/06 11:07:05;;;;;;;5.57;5.18;;;;;;;33.52;64.54;101057.94;5060894;28;70164;-42
2024/02/06 11:09:40;;;;;;;5.40;5.03;;;;;;;33.50;64.59;101057.34;5061826;28;66772;-42
2024/02/06 11:12:12;;;;;;;5.75;5.35;;;;;;;33.52;64.14;101060.66;5056450;28;70533;-41
2024/02/06 11:15:08;;;;;;;6.07;5.68;;;;;;;33.43;64.50;101054.69;5060549;28;66634;-42
2024/02/06 11:17:41;;;;;;;6.72;6.18;;;;;;;33.17;64.39;101015.16;5050005;28;70250;-41
2024/02/06 11:20:14;;;;;;;5.57;5.20;;;;;;;33.50;64.65;101073.66;5040097;28;66619;-43
2024/02/06 11:22:51;;;;;;;5.25;4.95;;;;;;;33.11;64.61;101021.53;5051512;28;43393;-41
2024/02/06 11:25:27;;;;;;;5.13;4.72;;;;;;;33.43;65.05;101081.06;5054715;28;66112;-42
2024/02/06 11:28:00;;;;;;;5.07;4.78;;;;;;;33.48;64.64;101092.91;5043711;28;70095;-42
2024/02/06 11:30:34;;;;;;;6.05;5.50;;;;;;;33.47;65.00;101104.03;5050677;28;65961;-43
2024/02/06 11:33:09;;;;;;;5.55;5.15;;;;;;;33.43;65.21;101110.97;5050705;28;70660;-43